sensor_id;sensor_type;location;lat;lon;timestamp;temperature;humidity
11965;DHT22;6042;41.326;19.826;2023-01-04T00:02:10;11.70;99.90
11965;DHT22;6042;41.326;19.826;2023-01-04T00:04:39;11.60;99.90
11965;DHT22;6042;41.326;19.826;2023-01-04T00:07:08;11.50;99.90
11965;DHT22;6042;41.326;19.826;2023-01-04T00:09:36;11.40;99.90
11965;DHT22;6042;41.326;19.826;2023-01-04T00:12:05;11.40;99.90
11965;DHT22;6042;41.326;19.826;2023-01-04T00:14:34;11.40;99.90
11965;DHT22;6042;41.326;19.826;2023-01-04T00:17:02;11.40;99.90
11965;DHT22;6042;41.326;19.826;2023-01-04T00:19:32;11.40;99.90
11965;DHT22;6042;41.326;19.826;2023-01-04T00:22:01;11.40;99.90
11965;DHT22;6042;41.326;19.826;2023-01-04T00:24:29;11.40;99.90
11965;DHT22;6042;41.326;19.826;2023-01-04T00:26:58;11.30;99.90
11965;DHT22;6042;41.326;19.826;2023-01-04T00:29:26;11.30;99.90
11965;DHT22;6042;41.326;19.826;2023-01-04T00:31:55;11.20;99.90
11965;DHT22;6042;41.326;19.826;2023-01-04T00:34:23;11.30;99.90
11965;DHT22;6042;41.326;19.826;2023-01-04T00:36:53;11.30;99.90
11965;DHT22;6042;41.326;19.826;2023-01-04T00:39:21;11.40;99.90
11965;DHT22;6042;41.326;19.826;2023-01-04T00:41:51;11.40;99.90
11965;DHT22;6042;41.326;19.826;2023-01-04T00:44:25;11.30;99.90
11965;DHT22;6042;41.326;19.826;2023-01-04T00:46:54;11.30;99.90
11965;DHT22;6042;41.326;19.826;2023-01-04T00:49:23;11.20;99.90
11965;DHT22;6042;41.326;19.826;2023-01-04T00:51:54;11.20;99.90
11965;DHT22;6042;41.326;19.826;2023-01-04T00:54:23;11.10;99.90
11965;DHT22;6042;41.326;19.826;2023-01-04T00:56:52;11.00;99.90
11965;DHT22;6042;41.326;19.826;2023-01-04T00:59:20;10.90;99.90
11965;DHT22;6042;41.326;19.826;2023-01-04T01:01:49;10.90;99.90
11965;DHT22;6042;41.326;19.826;2023-01-04T01:04:21;10.80;99.90
11965;DHT22;6042;41.326;19.826;2023-01-04T01:06:51;10.80;99.90
11965;DHT22;6042;41.326;19.826;2023-01-04T01:09:21;10.80;99.90
11965;DHT22;6042;41.326;19.826;2023-01-04T01:11:50;10.80;99.90
11965;DHT22;6042;41.326;19.826;2023-01-04T01:14:22;10.90;99.90
11965;DHT22;6042;41.326;19.826;2023-01-04T01:16:52;10.90;99.90
11965;DHT22;6042;41.326;19.826;2023-01-04T01:19:25;10.90;99.90
11965;DHT22;6042;41.326;19.826;2023-01-04T01:21:54;11.00;99.90
11965;DHT22;6042;41.326;19.826;2023-01-04T01:24:26;11.00;99.90
11965;DHT22;6042;41.326;19.826;2023-01-04T01:26:55;10.90;99.90
11965;DHT22;6042;41.326;19.826;2023-01-04T01:29:24;10.90;99.90
11965;DHT22;6042;41.326;19.826;2023-01-04T01:31:52;10.90;99.90
11965;DHT22;6042;41.326;19.826;2023-01-04T01:34:21;10.90;99.90
11965;DHT22;6042;41.326;19.826;2023-01-04T01:36:51;10.90;99.90
11965;DHT22;6042;41.326;19.826;2023-01-04T01:39:19;10.90;99.90
11965;DHT22;6042;41.326;19.826;2023-01-04T01:41:49;11.00;99.90
11965;DHT22;6042;41.326;19.826;2023-01-04T01:44:53;11.00;99.90
11965;DHT22;6042;41.326;19.826;2023-01-04T01:47:27;11.00;99.90
11965;DHT22;6042;41.326;19.826;2023-01-04T01:49:57;11.00;99.90
11965;DHT22;6042;41.326;19.826;2023-01-04T01:52:28;10.90;99.90
11965;DHT22;6042;41.326;19.826;2023-01-04T01:55:02;10.90;99.90
11965;DHT22;6042;41.326;19.826;2023-01-04T01:57:36;10.90;99.90
11965;DHT22;6042;41.326;19.826;2023-01-04T02:00:09;10.90;99.90
11965;DHT22;6042;41.326;19.826;2023-01-04T02:02:43;10.90;99.90
11965;DHT22;6042;41.326;19.826;2023-01-04T02:05:15;10.90;99.90
11965;DHT22;6042;41.326;19.826;2023-01-04T02:07:45;10.80;99.90
11965;DHT22;6042;41.326;19.826;2023-01-04T02:10:15;10.80;99.90
11965;DHT22;6042;41.326;19.826;2023-01-04T02:12:45;10.80;99.90
11965;DHT22;6042;41.326;19.826;2023-01-04T02:15:14;10.80;99.90
11965;DHT22;6042;41.326;19.826;2023-01-04T02:17:47;10.80;99.90
11965;DHT22;6042;41.326;19.826;2023-01-04T02:20:34;10.80;99.90
11965;DHT22;6042;41.326;19.826;2023-01-04T02:23:27;10.80;99.90
11965;DHT22;6042;41.326;19.826;2023-01-04T02:26:33;10.70;99.90
11965;DHT22;6042;41.326;19.826;2023-01-04T02:29:42;10.70;99.90
11965;DHT22;6042;41.326;19.826;2023-01-04T02:32:22;10.70;99.90
11965;DHT22;6042;41.326;19.826;2023-01-04T02:34:58;10.80;99.90
11965;DHT22;6042;41.326;19.826;2023-01-04T02:37:39;10.80;99.90
11965;DHT22;6042;41.326;19.826;2023-01-04T02:40:15;10.80;99.90
11965;DHT22;6042;41.326;19.826;2023-01-04T02:42:52;10.80;99.90
11965;DHT22;6042;41.326;19.826;2023-01-04T02:45:47;10.80;99.90
11965;DHT22;6042;41.326;19.826;2023-01-04T02:48:23;10.70;99.90
11965;DHT22;6042;41.326;19.826;2023-01-04T02:51:29;10.70;99.90
11965;DHT22;6042;41.326;19.826;2023-01-04T02:54:00;10.70;99.90
11965;DHT22;6042;41.326;19.826;2023-01-04T02:56:53;10.70;99.90
11965;DHT22;6042;41.326;19.826;2023-01-04T02:59:42;10.70;99.90
11965;DHT22;6042;41.326;19.826;2023-01-04T03:02:23;10.60;99.90
11965;DHT22;6042;41.326;19.826;2023-01-04T03:05:21;10.50;99.90
11965;DHT22;6042;41.326;19.826;2023-01-04T03:08:16;10.40;99.90
11965;DHT22;6042;41.326;19.826;2023-01-04T03:10:52;10.40;99.90
11965;DHT22;6042;41.326;19.826;2023-01-04T03:13:26;10.40;99.90
11965;DHT22;6042;41.326;19.826;2023-01-04T03:15:58;10.40;99.90
11965;DHT22;6042;41.326;19.826;2023-01-04T03:18:32;10.40;99.90
11965;DHT22;6042;41.326;19.826;2023-01-04T03:21:03;10.40;99.90
11965;DHT22;6042;41.326;19.826;2023-01-04T03:23:36;10.40;99.90
11965;DHT22;6042;41.326;19.826;2023-01-04T03:26:25;10.40;99.90
11965;DHT22;6042;41.326;19.826;2023-01-04T03:29:16;10.40;99.90
11965;DHT22;6042;41.326;19.826;2023-01-04T03:32:07;10.40;99.90
11965;DHT22;6042;41.326;19.826;2023-01-04T03:34:53;10.40;99.90
11965;DHT22;6042;41.326;19.826;2023-01-04T03:37:46;10.40;99.90
11965;DHT22;6042;41.326;19.826;2023-01-04T03:40:22;10.40;99.90
11965;DHT22;6042;41.326;19.826;2023-01-04T03:43:14;10.40;99.90
11965;DHT22;6042;41.326;19.826;2023-01-04T03:46:04;10.40;99.90
11965;DHT22;6042;41.326;19.826;2023-01-04T03:48:55;10.40;99.90
11965;DHT22;6042;41.326;19.826;2023-01-04T03:51:28;10.40;99.90
11965;DHT22;6042;41.326;19.826;2023-01-04T03:54:02;10.40;99.90
11965;DHT22;6042;41.326;19.826;2023-01-04T03:56:34;10.30;99.90
11965;DHT22;6042;41.326;19.826;2023-01-04T03:59:04;10.40;99.90
11965;DHT22;6042;41.326;19.826;2023-01-04T04:01:34;10.40;99.90
11965;DHT22;6042;41.326;19.826;2023-01-04T04:04:03;10.40;99.90
11965;DHT22;6042;41.326;19.826;2023-01-04T04:06:49;10.30;99.90
11965;DHT22;6042;41.326;19.826;2023-01-04T04:09:37;10.30;99.90
11965;DHT22;6042;41.326;19.826;2023-01-04T04:12:06;10.20;99.90
11965;DHT22;6042;41.326;19.826;2023-01-04T04:14:34;10.30;99.90
11965;DHT22;6042;41.326;19.826;2023-01-04T04:17:03;10.30;99.90
11965;DHT22;6042;41.326;19.826;2023-01-04T04:19:31;10.30;99.90
11965;DHT22;6042;41.326;19.826;2023-01-04T04:22:00;10.30;99.90
11965;DHT22;6042;41.326;19.826;2023-01-04T04:24:28;10.30;99.90
11965;DHT22;6042;41.326;19.826;2023-01-04T04:26:58;10.30;99.90
11965;DHT22;6042;41.326;19.826;2023-01-04T04:29:27;10.30;99.90
11965;DHT22;6042;41.326;19.826;2023-01-04T04:31:55;10.30;99.90
11965;DHT22;6042;41.326;19.826;2023-01-04T04:34:24;10.20;99.90
11965;DHT22;6042;41.326;19.826;2023-01-04T04:36:52;10.20;99.90
11965;DHT22;6042;41.326;19.826;2023-01-04T04:39:21;10.20;99.90
11965;DHT22;6042;41.326;19.826;2023-01-04T04:41:49;10.20;99.90
11965;DHT22;6042;41.326;19.826;2023-01-04T04:44:19;10.20;99.90
11965;DHT22;6042;41.326;19.826;2023-01-04T04:46:49;10.10;99.90
11965;DHT22;6042;41.326;19.826;2023-01-04T04:49:17;10.10;99.90
11965;DHT22;6042;41.326;19.826;2023-01-04T04:51:46;10.10;99.90
11965;DHT22;6042;41.326;19.826;2023-01-04T04:54:17;10.10;99.90
11965;DHT22;6042;41.326;19.826;2023-01-04T04:56:46;10.10;99.90
11965;DHT22;6042;41.326;19.826;2023-01-04T04:59:15;10.10;99.90
11965;DHT22;6042;41.326;19.826;2023-01-04T05:01:45;10.10;99.90
11965;DHT22;6042;41.326;19.826;2023-01-04T05:04:14;10.00;99.90
11965;DHT22;6042;41.326;19.826;2023-01-04T05:06:46;10.10;99.90
11965;DHT22;6042;41.326;19.826;2023-01-04T05:09:15;10.00;99.90
11965;DHT22;6042;41.326;19.826;2023-01-04T05:11:44;10.00;99.90
11965;DHT22;6042;41.326;19.826;2023-01-04T05:14:30;9.90;99.90
11965;DHT22;6042;41.326;19.826;2023-01-04T05:17:00;9.90;99.90
11965;DHT22;6042;41.326;19.826;2023-01-04T05:19:29;9.90;99.90
11965;DHT22;6042;41.326;19.826;2023-01-04T05:21:57;9.80;99.90
11965;DHT22;6042;41.326;19.826;2023-01-04T05:24:25;9.80;99.90
11965;DHT22;6042;41.326;19.826;2023-01-04T05:26:54;9.80;99.90
11965;DHT22;6042;41.326;19.826;2023-01-04T05:29:23;9.90;99.90
11965;DHT22;6042;41.326;19.826;2023-01-04T05:32:10;9.90;99.90
11965;DHT22;6042;41.326;19.826;2023-01-04T05:34:39;9.80;99.90
11965;DHT22;6042;41.326;19.826;2023-01-04T05:37:08;9.80;99.90
11965;DHT22;6042;41.326;19.826;2023-01-04T05:39:36;9.70;99.90
11965;DHT22;6042;41.326;19.826;2023-01-04T05:42:05;9.80;99.90
11965;DHT22;6042;41.326;19.826;2023-01-04T05:44:52;9.80;99.90
11965;DHT22;6042;41.326;19.826;2023-01-04T05:47:22;9.80;99.90
11965;DHT22;6042;41.326;19.826;2023-01-04T05:49:51;9.70;99.90
11965;DHT22;6042;41.326;19.826;2023-01-04T05:52:20;9.70;99.90
11965;DHT22;6042;41.326;19.826;2023-01-04T05:54:49;9.60;99.90
11965;DHT22;6042;41.326;19.826;2023-01-04T05:57:17;9.50;99.90
11965;DHT22;6042;41.326;19.826;2023-01-04T05:59:46;9.60;99.90
11965;DHT22;6042;41.326;19.826;2023-01-04T06:02:20;9.50;99.90
11965;DHT22;6042;41.326;19.826;2023-01-04T06:04:51;9.50;99.90
11965;DHT22;6042;41.326;19.826;2023-01-04T06:07:26;9.50;99.90
11965;DHT22;6042;41.326;19.826;2023-01-04T06:09:56;9.60;99.90
11965;DHT22;6042;41.326;19.826;2023-01-04T06:12:25;9.60;99.90
11965;DHT22;6042;41.326;19.826;2023-01-04T06:14:53;9.70;99.90
11965;DHT22;6042;41.326;19.826;2023-01-04T06:17:22;9.80;99.90
11965;DHT22;6042;41.326;19.826;2023-01-04T06:19:52;9.80;99.90
11965;DHT22;6042;41.326;19.826;2023-01-04T06:22:20;9.80;99.90
11965;DHT22;6042;41.326;19.826;2023-01-04T06:24:49;9.90;99.90
11965;DHT22;6042;41.326;19.826;2023-01-04T06:27:17;9.90;99.90
11965;DHT22;6042;41.326;19.826;2023-01-04T06:29:46;9.90;99.90
11965;DHT22;6042;41.326;19.826;2023-01-04T06:32:14;10.00;99.90
11965;DHT22;6042;41.326;19.826;2023-01-04T06:34:43;10.00;99.90
11965;DHT22;6042;41.326;19.826;2023-01-04T06:37:13;10.10;99.90
11965;DHT22;6042;41.326;19.826;2023-01-04T06:39:41;10.10;99.90
11965;DHT22;6042;41.326;19.826;2023-01-04T06:42:10;10.10;99.90
11965;DHT22;6042;41.326;19.826;2023-01-04T06:44:52;10.10;99.90
11965;DHT22;6042;41.326;19.826;2023-01-04T06:47:21;10.20;99.90
11965;DHT22;6042;41.326;19.826;2023-01-04T06:49:49;10.10;99.90
11965;DHT22;6042;41.326;19.826;2023-01-04T06:52:19;10.10;99.90
11965;DHT22;6042;41.326;19.826;2023-01-04T06:54:48;10.20;99.90
11965;DHT22;6042;41.326;19.826;2023-01-04T06:57:16;10.20;99.90
11965;DHT22;6042;41.326;19.826;2023-01-04T06:59:45;10.20;99.90
11965;DHT22;6042;41.326;19.826;2023-01-04T07:02:14;10.30;99.90
11965;DHT22;6042;41.326;19.826;2023-01-04T07:04:43;10.30;99.90
11965;DHT22;6042;41.326;19.826;2023-01-04T07:07:12;10.40;99.90
11965;DHT22;6042;41.326;19.826;2023-01-04T07:09:42;10.40;99.90
11965;DHT22;6042;41.326;19.826;2023-01-04T07:12:11;10.50;99.90
11965;DHT22;6042;41.326;19.826;2023-01-04T07:14:39;10.50;99.90
11965;DHT22;6042;41.326;19.826;2023-01-04T07:17:08;10.50;99.90
11965;DHT22;6042;41.326;19.826;2023-01-04T07:19:36;10.60;99.90
11965;DHT22;6042;41.326;19.826;2023-01-04T07:22:05;10.70;99.90
11965;DHT22;6042;41.326;19.826;2023-01-04T07:24:33;10.70;99.90
11965;DHT22;6042;41.326;19.826;2023-01-04T07:27:03;10.70;99.90
11965;DHT22;6042;41.326;19.826;2023-01-04T07:29:32;10.70;99.90
11965;DHT22;6042;41.326;19.826;2023-01-04T07:32:00;10.80;99.90
11965;DHT22;6042;41.326;19.826;2023-01-04T07:34:36;10.90;99.90
11965;DHT22;6042;41.326;19.826;2023-01-04T07:37:06;10.90;99.90
11965;DHT22;6042;41.326;19.826;2023-01-04T07:39:36;10.90;99.90
11965;DHT22;6042;41.326;19.826;2023-01-04T07:42:06;11.00;99.90
11965;DHT22;6042;41.326;19.826;2023-01-04T07:44:34;11.00;99.90
11965;DHT22;6042;41.326;19.826;2023-01-04T07:47:03;11.10;99.90
11965;DHT22;6042;41.326;19.826;2023-01-04T07:49:32;11.10;99.90
11965;DHT22;6042;41.326;19.826;2023-01-04T07:52:00;11.20;99.90
11965;DHT22;6042;41.326;19.826;2023-01-04T07:54:29;11.30;99.90
11965;DHT22;6042;41.326;19.826;2023-01-04T07:56:57;11.40;99.90
11965;DHT22;6042;41.326;19.826;2023-01-04T07:59:27;11.60;99.90
11965;DHT22;6042;41.326;19.826;2023-01-04T08:01:57;11.70;99.90
11965;DHT22;6042;41.326;19.826;2023-01-04T08:04:26;11.80;99.90
11965;DHT22;6042;41.326;19.826;2023-01-04T08:07:01;11.90;99.90
11965;DHT22;6042;41.326;19.826;2023-01-04T08:09:29;11.90;99.90
11965;DHT22;6042;41.326;19.826;2023-01-04T08:11:58;12.00;99.90
11965;DHT22;6042;41.326;19.826;2023-01-04T08:14:28;11.90;99.90
11965;DHT22;6042;41.326;19.826;2023-01-04T08:16:56;12.00;99.90
11965;DHT22;6042;41.326;19.826;2023-01-04T08:19:27;12.10;99.90
11965;DHT22;6042;41.326;19.826;2023-01-04T08:21:56;12.20;99.90
11965;DHT22;6042;41.326;19.826;2023-01-04T08:24:24;12.20;99.90
11965;DHT22;6042;41.326;19.826;2023-01-04T08:26:53;12.20;99.90
11965;DHT22;6042;41.326;19.826;2023-01-04T08:29:22;12.20;99.90
11965;DHT22;6042;41.326;19.826;2023-01-04T08:32:00;12.30;99.90
11965;DHT22;6042;41.326;19.826;2023-01-04T08:34:28;12.40;99.90
11965;DHT22;6042;41.326;19.826;2023-01-04T08:36:58;12.50;99.90
11965;DHT22;6042;41.326;19.826;2023-01-04T08:39:27;12.60;99.90
11965;DHT22;6042;41.326;19.826;2023-01-04T08:41:59;12.70;99.90
11965;DHT22;6042;41.326;19.826;2023-01-04T08:44:45;12.80;99.90
11965;DHT22;6042;41.326;19.826;2023-01-04T08:47:15;13.00;99.90
11965;DHT22;6042;41.326;19.826;2023-01-04T08:49:43;13.10;99.90
11965;DHT22;6042;41.326;19.826;2023-01-04T08:52:12;13.20;99.90
11965;DHT22;6042;41.326;19.826;2023-01-04T08:54:41;13.30;99.90
11965;DHT22;6042;41.326;19.826;2023-01-04T08:57:10;13.50;99.90
11965;DHT22;6042;41.326;19.826;2023-01-04T08:59:40;13.60;99.90
11965;DHT22;6042;41.326;19.826;2023-01-04T09:02:19;13.60;99.90
11965;DHT22;6042;41.326;19.826;2023-01-04T09:04:50;13.80;99.90
11965;DHT22;6042;41.326;19.826;2023-01-04T09:07:21;13.80;99.90
11965;DHT22;6042;41.326;19.826;2023-01-04T09:09:49;13.90;99.90
11965;DHT22;6042;41.326;19.826;2023-01-04T09:12:18;14.00;99.90
11965;DHT22;6042;41.326;19.826;2023-01-04T09:14:46;14.10;99.90
11965;DHT22;6042;41.326;19.826;2023-01-04T09:17:16;14.10;99.90
11965;DHT22;6042;41.326;19.826;2023-01-04T09:19:45;14.20;99.90
11965;DHT22;6042;41.326;19.826;2023-01-04T09:22:13;14.20;99.90
11965;DHT22;6042;41.326;19.826;2023-01-04T09:24:42;14.20;99.90
11965;DHT22;6042;41.326;19.826;2023-01-04T09:27:10;14.20;99.90
11965;DHT22;6042;41.326;19.826;2023-01-04T09:29:39;14.20;99.90
11965;DHT22;6042;41.326;19.826;2023-01-04T09:32:07;14.20;99.90
11965;DHT22;6042;41.326;19.826;2023-01-04T09:34:44;14.20;99.90
11965;DHT22;6042;41.326;19.826;2023-01-04T09:37:12;14.30;99.90
11965;DHT22;6042;41.326;19.826;2023-01-04T09:39:41;14.30;99.90
11965;DHT22;6042;41.326;19.826;2023-01-04T09:42:16;14.00;99.90
11965;DHT22;6042;41.326;19.826;2023-01-04T09:44:50;13.90;99.90
11965;DHT22;6042;41.326;19.826;2023-01-04T09:47:42;13.80;99.90
11965;DHT22;6042;41.326;19.826;2023-01-04T09:50:17;13.70;99.90
11965;DHT22;6042;41.326;19.826;2023-01-04T09:52:56;13.70;99.90
11965;DHT22;6042;41.326;19.826;2023-01-04T09:55:32;13.70;99.90
11965;DHT22;6042;41.326;19.826;2023-01-04T09:58:21;13.60;99.90
11965;DHT22;6042;41.326;19.826;2023-01-04T10:00:58;13.60;99.90
11965;DHT22;6042;41.326;19.826;2023-01-04T10:03:30;13.70;99.90
11965;DHT22;6042;41.326;19.826;2023-01-04T10:06:01;13.70;99.90
11965;DHT22;6042;41.326;19.826;2023-01-04T10:08:30;13.80;99.90
11965;DHT22;6042;41.326;19.826;2023-01-04T10:11:18;14.00;99.90
11965;DHT22;6042;41.326;19.826;2023-01-04T10:17:01;14.10;99.90
11965;DHT22;6042;41.326;19.826;2023-01-04T10:20:10;14.20;99.90
11965;DHT22;6042;41.326;19.826;2023-01-04T10:23:11;14.20;99.90
11965;DHT22;6042;41.326;19.826;2023-01-04T10:25:46;14.30;99.90
11965;DHT22;6042;41.326;19.826;2023-01-04T10:28:39;14.40;99.90
11965;DHT22;6042;41.326;19.826;2023-01-04T10:31:13;14.50;99.90
11965;DHT22;6042;41.326;19.826;2023-01-04T10:34:15;14.50;99.90
11965;DHT22;6042;41.326;19.826;2023-01-04T10:36:45;14.60;99.90
11965;DHT22;6042;41.326;19.826;2023-01-04T10:39:18;14.70;99.90
11965;DHT22;6042;41.326;19.826;2023-01-04T10:41:54;14.80;99.90
11965;DHT22;6042;41.326;19.826;2023-01-04T10:44:26;15.10;99.90
11965;DHT22;6042;41.326;19.826;2023-01-04T10:47:01;15.20;99.90
11965;DHT22;6042;41.326;19.826;2023-01-04T10:49:40;15.30;99.90
11965;DHT22;6042;41.326;19.826;2023-01-04T10:52:11;15.50;99.90
11965;DHT22;6042;41.326;19.826;2023-01-04T10:54:46;15.60;99.90
11965;DHT22;6042;41.326;19.826;2023-01-04T10:57:22;15.50;99.90
11965;DHT22;6042;41.326;19.826;2023-01-04T10:59:55;15.40;99.90
11965;DHT22;6042;41.326;19.826;2023-01-04T11:02:34;15.50;99.90
11965;DHT22;6042;41.326;19.826;2023-01-04T11:05:10;15.70;99.90
11965;DHT22;6042;41.326;19.826;2023-01-04T11:07:40;15.70;99.90
11965;DHT22;6042;41.326;19.826;2023-01-04T11:10:17;15.90;99.90
11965;DHT22;6042;41.326;19.826;2023-01-04T11:12:47;16.10;99.90
11965;DHT22;6042;41.326;19.826;2023-01-04T11:15:16;16.30;99.90
11965;DHT22;6042;41.326;19.826;2023-01-04T11:17:45;16.50;99.90
11965;DHT22;6042;41.326;19.826;2023-01-04T11:20:14;16.60;99.90
11965;DHT22;6042;41.326;19.826;2023-01-04T11:22:47;16.40;99.90
11965;DHT22;6042;41.326;19.826;2023-01-04T11:25:21;16.30;99.90
11965;DHT22;6042;41.326;19.826;2023-01-04T11:28:12;16.20;99.90
11965;DHT22;6042;41.326;19.826;2023-01-04T11:30:50;15.90;99.90
11965;DHT22;6042;41.326;19.826;2023-01-04T11:33:22;16.20;99.90
11965;DHT22;6042;41.326;19.826;2023-01-04T11:35:52;16.40;99.90
11965;DHT22;6042;41.326;19.826;2023-01-04T11:38:23;16.20;99.90
11965;DHT22;6042;41.326;19.826;2023-01-04T11:40:58;16.50;99.90
11965;DHT22;6042;41.326;19.826;2023-01-04T11:43:28;16.80;99.90
11965;DHT22;6042;41.326;19.826;2023-01-04T11:46:00;16.80;99.90
11965;DHT22;6042;41.326;19.826;2023-01-04T11:48:38;16.60;99.90
11965;DHT22;6042;41.326;19.826;2023-01-04T11:51:19;16.40;99.90
11965;DHT22;6042;41.326;19.826;2023-01-04T11:53:56;16.60;99.90
11965;DHT22;6042;41.326;19.826;2023-01-04T11:56:27;16.90;99.90
11965;DHT22;6042;41.326;19.826;2023-01-04T11:59:12;16.50;99.90
11965;DHT22;6042;41.326;19.826;2023-01-04T12:02:01;16.60;99.90
11965;DHT22;6042;41.326;19.826;2023-01-04T12:04:37;16.80;99.90
11965;DHT22;6042;41.326;19.826;2023-01-04T12:07:14;16.60;99.90
11965;DHT22;6042;41.326;19.826;2023-01-04T12:09:47;16.80;99.90
11965;DHT22;6042;41.326;19.826;2023-01-04T12:12:17;17.30;99.90
11965;DHT22;6042;41.326;19.826;2023-01-04T12:14:47;17.90;99.90
11965;DHT22;6042;41.326;19.826;2023-01-04T12:17:19;18.30;99.90
11965;DHT22;6042;41.326;19.826;2023-01-04T12:19:51;18.40;99.90
11965;DHT22;6042;41.326;19.826;2023-01-04T12:22:24;19.60;99.90
11965;DHT22;6042;41.326;19.826;2023-01-04T12:24:58;20.20;99.90
11965;DHT22;6042;41.326;19.826;2023-01-04T12:27:28;21.30;99.90
11965;DHT22;6042;41.326;19.826;2023-01-04T12:29:58;22.40;98.60
11965;DHT22;6042;41.326;19.826;2023-01-04T12:32:42;22.00;98.10
11965;DHT22;6042;41.326;19.826;2023-01-04T12:39:01;23.10;96.20
11965;DHT22;6042;41.326;19.826;2023-01-04T12:47:54;22.50;96.60
11965;DHT22;6042;41.326;19.826;2023-01-04T12:54:22;23.60;95.10
11965;DHT22;6042;41.326;19.826;2023-01-04T12:57:23;23.50;94.70
11965;DHT22;6042;41.326;19.826;2023-01-04T12:59:57;21.60;96.70
11965;DHT22;6042;41.326;19.826;2023-01-04T13:02:27;20.60;98.00
11965;DHT22;6042;41.326;19.826;2023-01-04T13:04:58;19.60;99.90
11965;DHT22;6042;41.326;19.826;2023-01-04T13:07:49;18.50;99.90
11965;DHT22;6042;41.326;19.826;2023-01-04T13:10:24;17.80;99.90
11965;DHT22;6042;41.326;19.826;2023-01-04T13:13:02;17.20;99.90
11965;DHT22;6042;41.326;19.826;2023-01-04T13:15:51;16.80;99.90
11965;DHT22;6042;41.326;19.826;2023-01-04T13:18:35;16.50;99.90
11965;DHT22;6042;41.326;19.826;2023-01-04T13:21:11;16.10;99.90
11965;DHT22;6042;41.326;19.826;2023-01-04T13:23:47;15.80;99.90
11965;DHT22;6042;41.326;19.826;2023-01-04T13:26:35;15.50;99.90
11965;DHT22;6042;41.326;19.826;2023-01-04T13:29:15;15.50;99.90
11965;DHT22;6042;41.326;19.826;2023-01-04T13:31:51;15.50;99.90
11965;DHT22;6042;41.326;19.826;2023-01-04T13:34:25;15.50;99.90
11965;DHT22;6042;41.326;19.826;2023-01-04T13:37:05;15.40;99.90
11965;DHT22;6042;41.326;19.826;2023-01-04T13:39:36;15.40;99.90
11965;DHT22;6042;41.326;19.826;2023-01-04T13:42:11;15.40;99.90
11965;DHT22;6042;41.326;19.826;2023-01-04T13:47:50;15.40;99.90
11965;DHT22;6042;41.326;19.826;2023-01-04T13:50:27;15.40;99.90
11965;DHT22;6042;41.326;19.826;2023-01-04T13:52:58;15.30;99.90
11965;DHT22;6042;41.326;19.826;2023-01-04T13:55:35;15.30;99.90
11965;DHT22;6042;41.326;19.826;2023-01-04T13:58:05;15.20;99.90
11965;DHT22;6042;41.326;19.826;2023-01-04T14:00:41;15.20;99.90
11965;DHT22;6042;41.326;19.826;2023-01-04T14:03:19;15.10;99.90
11965;DHT22;6042;41.326;19.826;2023-01-04T14:05:50;15.10;99.90
11965;DHT22;6042;41.326;19.826;2023-01-04T14:08:28;15.10;99.90
11965;DHT22;6042;41.326;19.826;2023-01-04T14:10:58;15.00;99.90
11965;DHT22;6042;41.326;19.826;2023-01-04T14:13:27;14.90;99.90
11965;DHT22;6042;41.326;19.826;2023-01-04T14:16:09;15.10;99.90
11965;DHT22;6042;41.326;19.826;2023-01-04T14:18:38;15.10;99.90
11965;DHT22;6042;41.326;19.826;2023-01-04T14:21:14;15.10;99.90
11965;DHT22;6042;41.326;19.826;2023-01-04T14:23:45;15.10;99.90
11965;DHT22;6042;41.326;19.826;2023-01-04T14:26:39;15.00;99.90
11965;DHT22;6042;41.326;19.826;2023-01-04T14:29:26;15.00;99.90
11965;DHT22;6042;41.326;19.826;2023-01-04T14:31:57;15.00;99.90
11965;DHT22;6042;41.326;19.826;2023-01-04T14:34:25;14.90;99.90
11965;DHT22;6042;41.326;19.826;2023-01-04T14:37:02;14.80;99.90
11965;DHT22;6042;41.326;19.826;2023-01-04T14:39:33;14.80;99.90
11965;DHT22;6042;41.326;19.826;2023-01-04T14:42:02;14.80;99.90
11965;DHT22;6042;41.326;19.826;2023-01-04T14:44:31;14.80;99.90
11965;DHT22;6042;41.326;19.826;2023-01-04T14:47:02;14.80;99.90
11965;DHT22;6042;41.326;19.826;2023-01-04T14:49:33;14.80;99.90
11965;DHT22;6042;41.326;19.826;2023-01-04T14:52:06;14.70;99.90
11965;DHT22;6042;41.326;19.826;2023-01-04T14:54:38;14.70;99.90
11965;DHT22;6042;41.326;19.826;2023-01-04T14:57:08;14.70;99.90
11965;DHT22;6042;41.326;19.826;2023-01-04T14:59:37;14.70;99.90
11965;DHT22;6042;41.326;19.826;2023-01-04T15:02:07;14.60;99.90
11965;DHT22;6042;41.326;19.826;2023-01-04T15:04:36;14.60;99.90
11965;DHT22;6042;41.326;19.826;2023-01-04T15:07:05;14.50;99.90
11965;DHT22;6042;41.326;19.826;2023-01-04T15:09:34;14.50;99.90
11965;DHT22;6042;41.326;19.826;2023-01-04T15:12:04;14.50;99.90
11965;DHT22;6042;41.326;19.826;2023-01-04T15:14:33;14.40;99.90
11965;DHT22;6042;41.326;19.826;2023-01-04T15:17:01;14.40;99.90
11965;DHT22;6042;41.326;19.826;2023-01-04T15:19:30;14.40;99.90
11965;DHT22;6042;41.326;19.826;2023-01-04T15:22:04;14.30;99.90
11965;DHT22;6042;41.326;19.826;2023-01-04T15:24:33;14.30;99.90
11965;DHT22;6042;41.326;19.826;2023-01-04T15:27:01;14.20;99.90
11965;DHT22;6042;41.326;19.826;2023-01-04T15:29:31;14.10;99.90
11965;DHT22;6042;41.326;19.826;2023-01-04T15:32:01;14.10;99.90
11965;DHT22;6042;41.326;19.826;2023-01-04T15:34:29;14.00;99.90
11965;DHT22;6042;41.326;19.826;2023-01-04T15:36:59;14.10;99.90
11965;DHT22;6042;41.326;19.826;2023-01-04T15:39:27;14.00;99.90
11965;DHT22;6042;41.326;19.826;2023-01-04T15:41:56;14.00;99.90
11965;DHT22;6042;41.326;19.826;2023-01-04T15:44:43;14.00;99.90
11965;DHT22;6042;41.326;19.826;2023-01-04T15:47:12;14.00;99.90
11965;DHT22;6042;41.326;19.826;2023-01-04T15:49:40;14.00;99.90
11965;DHT22;6042;41.326;19.826;2023-01-04T15:52:09;13.90;99.90
11965;DHT22;6042;41.326;19.826;2023-01-04T15:54:37;13.90;99.90
11965;DHT22;6042;41.326;19.826;2023-01-04T15:57:06;13.80;99.90
11965;DHT22;6042;41.326;19.826;2023-01-04T15:59:34;13.80;99.90
11965;DHT22;6042;41.326;19.826;2023-01-04T16:02:04;13.90;99.90
11965;DHT22;6042;41.326;19.826;2023-01-04T16:04:34;13.80;99.90
11965;DHT22;6042;41.326;19.826;2023-01-04T16:07:03;13.80;99.90
11965;DHT22;6042;41.326;19.826;2023-01-04T16:09:31;13.70;99.90
11965;DHT22;6042;41.326;19.826;2023-01-04T16:12:00;13.70;99.90
11965;DHT22;6042;41.326;19.826;2023-01-04T16:14:49;13.70;99.90
11965;DHT22;6042;41.326;19.826;2023-01-04T16:17:19;13.70;99.90
11965;DHT22;6042;41.326;19.826;2023-01-04T16:19:48;13.70;99.90
11965;DHT22;6042;41.326;19.826;2023-01-04T16:22:17;13.70;99.90
11965;DHT22;6042;41.326;19.826;2023-01-04T16:24:46;13.60;99.90
11965;DHT22;6042;41.326;19.826;2023-01-04T16:27:36;13.50;99.90
11965;DHT22;6042;41.326;19.826;2023-01-04T16:30:07;13.50;99.90
11965;DHT22;6042;41.326;19.826;2023-01-04T16:32:41;13.50;99.90